Time;durP1;ratioP1;P1;durP2;ratioP2;P2;SDS_P1;SDS_P2;PMS_P1;PMS_P2;Temp;Humidity;BMP_temperature;BMP_pressure;BME280_temperature;BME280_humidity;BME280_pressure;Samples;Min_cycle;Max_cycle;Signal;HPM_P1;HPM_P2
2021/10/05 00:00:08;;;;;;;8.85;7.05;;;12.70;72.70;;;;;;5032854;28;20377;-50
2021/10/05 00:02:33;;;;;;;8.70;6.78;;;12.60;72.60;;;;;;5027053;28;20036;-50
2021/10/05 00:05:03;;;;;;;9.63;7.45;;;12.70;72.70;;;;;;5027814;28;20021;-51
2021/10/05 00:07:31;;;;;;;8.65;7.20;;;12.60;72.60;;;;;;5031786;28;20030;-50
2021/10/05 00:09:57;;;;;;;10.32;7.38;;;12.60;72.60;;;;;;5030999;28;20028;-50
2021/10/05 00:12:23;;;;;;;10.30;7.68;;;12.60;72.60;;;;;;5033690;28;20026;-50
2021/10/05 00:14:50;;;;;;;10.45;8.73;;;12.50;72.60;;;;;;5033474;28;20036;-50
2021/10/05 00:17:19;;;;;;;12.43;8.05;;;12.50;72.90;;;;;;5032021;28;20033;-50
2021/10/05 00:19:46;;;;;;;10.98;7.75;;;12.50;72.80;;;;;;5032849;28;20037;-50
2021/10/05 00:22:12;;;;;;;11.93;7.80;;;12.40;72.50;;;;;;5031578;28;20034;-51
2021/10/05 00:24:37;;;;;;;10.25;7.85;;;12.40;72.50;;;;;;5033049;28;20024;-51
2021/10/05 00:27:03;;;;;;;12.77;10.07;;;12.30;72.50;;;;;;5028874;28;20473;-51
2021/10/05 00:29:29;;;;;;;11.60;9.45;;;12.30;72.50;;;;;;5023527;28;20049;-50
2021/10/05 00:31:54;;;;;;;10.50;8.30;;;12.20;72.70;;;;;;5029584;28;20581;-52
2021/10/05 00:34:20;;;;;;;11.98;9.18;;;12.20;72.80;;;;;;5031503;28;20030;-50
2021/10/05 00:36:46;;;;;;;10.82;8.40;;;12.20;72.90;;;;;;5031494;28;20038;-51
2021/10/05 00:39:11;;;;;;;10.80;8.68;;;12.10;72.90;;;;;;5032431;28;20057;-50
2021/10/05 00:41:37;;;;;;;12.35;9.85;;;12.10;73.00;;;;;;5030098;28;20397;-50
2021/10/05 00:44:03;;;;;;;11.18;9.27;;;12.10;72.90;;;;;;5030998;28;20021;-51
2021/10/05 00:46:29;;;;;;;11.85;8.90;;;12.00;73.00;;;;;;5022634;28;20621;-51
2021/10/05 00:48:56;;;;;;;10.77;8.63;;;12.00;73.10;;;;;;5028821;28;20116;-51
2021/10/05 00:51:24;;;;;;;9.57;7.78;;;12.00;72.90;;;;;;5031262;28;20034;-53
2021/10/05 00:53:52;;;;;;;9.55;8.38;;;12.00;73.10;;;;;;5032359;28;20034;-50
2021/10/05 00:56:19;;;;;;;12.02;8.57;;;11.90;73.20;;;;;;5031453;28;20029;-50
2021/10/05 00:58:44;;;;;;;10.77;7.95;;;11.90;73.20;;;;;;5032341;28;20065;-50
2021/10/05 01:01:10;;;;;;;9.32;8.35;;;11.90;73.30;;;;;;5025810;28;20025;-51
2021/10/05 01:03:36;;;;;;;11.27;8.05;;;11.90;73.60;;;;;;5024413;28;20059;-50
2021/10/05 01:06:01;;;;;;;9.98;8.10;;;11.90;73.60;;;;;;5031643;28;20037;-51
2021/10/05 01:08:31;;;;;;;11.43;8.35;;;11.90;73.60;;;;;;5033578;28;20021;-52
2021/10/05 01:10:57;;;;;;;11.57;8.75;;;11.90;73.70;;;;;;5036376;28;20113;-52
2021/10/05 01:13:23;;;;;;;13.13;9.77;;;11.90;73.80;;;;;;5034760;28;20488;-49
2021/10/05 01:15:49;;;;;;;10.88;8.68;;;11.90;73.70;;;;;;5035113;28;20060;-50
2021/10/05 01:18:15;;;;;;;9.88;8.32;;;11.90;73.70;;;;;;5036493;28;20057;-50
2021/10/05 01:20:55;;;;;;;10.38;7.90;;;11.90;73.70;;;;;;5034007;28;20022;-49
2021/10/05 01:23:23;;;;;;;10.40;8.18;;;11.80;73.90;;;;;;5026377;28;20088;-50
2021/10/05 01:25:49;;;;;;;12.25;8.32;;;11.80;74.00;;;;;;5034922;28;20030;-49
2021/10/05 01:28:18;;;;;;;11.38;8.95;;;11.80;74.10;;;;;;5036328;28;20028;-50
2021/10/05 01:30:44;;;;;;;9.48;7.78;;;11.80;74.20;;;;;;5034243;28;20048;-50
2021/10/05 01:33:10;;;;;;;10.02;8.52;;;11.80;74.30;;;;;;5033207;28;20029;-51
2021/10/05 01:35:36;;;;;;;11.77;8.05;;;11.80;74.40;;;;;;5030167;28;20026;-50
2021/10/05 01:38:03;;;;;;;11.63;8.27;;;11.80;74.20;;;;;;5034881;28;20041;-50
2021/10/05 01:40:28;;;;;;;10.88;8.48;;;11.80;74.30;;;;;;5035200;28;20034;-50
2021/10/05 01:42:54;;;;;;;10.70;8.05;;;11.80;74.40;;;;;;5035968;28;20037;-52
2021/10/05 01:45:20;;;;;;;10.80;9.23;;;11.80;74.30;;;;;;5034957;28;20021;-53
2021/10/05 01:47:45;;;;;;;10.18;8.60;;;11.80;74.30;;;;;;5034543;28;20045;-50
2021/10/05 01:50:11;;;;;;;10.05;8.02;;;11.70;74.10;;;;;;5029916;28;20033;-50
2021/10/05 01:52:37;;;;;;;10.85;8.20;;;11.70;74.20;;;;;;5035611;28;20025;-52
2021/10/05 01:55:05;;;;;;;12.50;9.27;;;11.70;74.20;;;;;;5033508;28;20037;-49
2021/10/05 01:57:31;;;;;;;11.50;7.75;;;11.70;74.40;;;;;;5035233;28;20033;-51
2021/10/05 01:59:57;;;;;;;12.70;7.97;;;11.60;74.40;;;;;;5035738;28;20038;-49
2021/10/05 02:02:22;;;;;;;10.25;8.27;;;11.60;74.50;;;;;;5033411;28;20136;-50
2021/10/05 02:04:48;;;;;;;10.98;8.20;;;11.60;74.50;;;;;;5031213;28;20477;-49
2021/10/05 02:07:14;;;;;;;10.57;8.48;;;11.60;74.50;;;;;;5033693;28;20088;-50
2021/10/05 02:09:47;;;;;;;9.82;7.63;;;11.60;74.50;;;;;;5035507;28;20028;-49
2021/10/05 02:12:16;;;;;;;11.25;8.88;;;11.60;74.60;;;;;;5033664;28;20040;-50
2021/10/05 02:14:43;;;;;;;9.88;8.32;;;11.60;74.50;;;;;;5032329;28;20087;-50
2021/10/05 02:17:09;;;;;;;10.50;8.15;;;11.50;74.60;;;;;;5031570;28;20026;-51
2021/10/05 02:19:34;;;;;;;11.77;9.00;;;11.50;74.80;;;;;;5020414;28;20390;-50
2021/10/05 02:22:00;;;;;;;10.63;8.18;;;11.50;74.90;;;;;;5028589;28;20021;-49
2021/10/05 02:26:52;;;;;;;10.80;8.20;;;11.50;75.10;;;;;;5033378;28;20071;-51
2021/10/05 02:29:19;;;;;;;11.60;9.07;;;11.50;75.10;;;;;;5035469;28;20481;-52
2021/10/05 02:31:45;;;;;;;12.90;8.40;;;11.50;75.10;;;;;;5027915;28;20030;-50
2021/10/05 02:34:12;;;;;;;11.80;9.18;;;11.50;75.00;;;;;;5031659;28;20439;-50
2021/10/05 02:36:39;;;;;;;11.73;8.73;;;11.40;75.10;;;;;;5034963;28;20071;-50
2021/10/05 02:39:05;;;;;;;10.50;9.05;;;11.50;75.20;;;;;;5033077;28;20049;-53
2021/10/05 02:41:30;;;;;;;11.93;8.70;;;11.40;75.20;;;;;;5033928;28;20531;-51
2021/10/05 02:43:56;;;;;;;12.10;8.13;;;11.40;75.20;;;;;;5035063;28;20378;-52
2021/10/05 02:46:22;;;;;;;12.77;8.90;;;11.40;75.20;;;;;;5033634;28;20030;-50
2021/10/05 02:48:47;;;;;;;10.50;8.50;;;11.30;75.10;;;;;;5034593;28;20358;-53
2021/10/05 02:51:13;;;;;;;11.35;8.43;;;11.30;75.20;;;;;;5033393;28;20036;-49
2021/10/05 02:53:39;;;;;;;12.48;9.00;;;11.30;75.30;;;;;;5031451;28;20030;-50
2021/10/05 02:56:05;;;;;;;11.73;9.18;;;11.30;75.50;;;;;;5032131;28;20032;-50
2021/10/05 02:58:30;;;;;;;12.43;9.52;;;11.20;76.20;;;;;;5023208;28;20025;-50
2021/10/05 03:00:56;;;;;;;14.15;9.35;;;11.20;75.60;;;;;;5033484;28;20038;-50
2021/10/05 03:03:22;;;;;;;13.05;9.18;;;11.10;75.70;;;;;;5032628;28;20037;-50
2021/10/05 03:05:47;;;;;;;11.88;9.10;;;11.10;75.70;;;;;;5030920;28;20021;-53
2021/10/05 03:08:13;;;;;;;12.75;8.88;;;11.00;75.90;;;;;;5023627;28;20026;-50
2021/10/05 03:10:39;;;;;;;12.00;8.60;;;11.00;75.80;;;;;;5022012;28;20025;-49
2021/10/05 03:13:05;;;;;;;12.25;8.82;;;10.90;76.00;;;;;;5031200;28;20163;-51
2021/10/05 03:15:31;;;;;;;12.85;10.23;;;10.90;76.10;;;;;;5016095;28;20029;-53
2021/10/05 03:17:57;;;;;;;13.55;10.35;;;10.90;76.30;;;;;;5024943;28;20022;-50
2021/10/05 03:20:23;;;;;;;10.73;8.35;;;10.80;76.40;;;;;;5015456;28;20493;-49
2021/10/05 03:22:49;;;;;;;13.75;9.05;;;10.80;76.50;;;;;;5032365;28;20029;-51
2021/10/05 03:25:14;;;;;;;11.40;8.52;;;10.90;76.60;;;;;;5033117;28;20025;-50
2021/10/05 03:27:40;;;;;;;9.57;8.45;;;10.90;76.70;;;;;;5031293;28;20036;-50
2021/10/05 03:30:09;;;;;;;10.43;9.02;;;10.90;76.70;;;;;;5033983;28;20021;-51
2021/10/05 03:32:35;;;;;;;10.85;8.43;;;10.90;76.60;;;;;;5033993;28;20026;-49
2021/10/05 03:35:00;;;;;;;12.50;8.38;;;10.90;76.60;;;;;;5031704;28;20044;-50
2021/10/05 03:37:26;;;;;;;10.93;8.57;;;10.90;76.70;;;;;;5032518;28;20108;-49
2021/10/05 03:39:52;;;;;;;11.07;8.40;;;10.90;76.80;;;;;;5027558;28;20042;-49
2021/10/05 03:42:18;;;;;;;9.88;8.02;;;10.90;76.80;;;;;;5029004;28;20039;-49
2021/10/05 03:44:43;;;;;;;10.05;7.93;;;10.90;76.70;;;;;;5033521;28;20056;-50
2021/10/05 03:47:09;;;;;;;10.75;8.50;;;10.90;76.70;;;;;;5032853;28;20397;-50
2021/10/05 03:49:35;;;;;;;10.25;7.57;;;10.90;76.70;;;;;;5033562;28;20420;-49
2021/10/05 03:52:01;;;;;;;11.95;8.93;;;11.00;76.80;;;;;;5032677;28;20041;-49
2021/10/05 03:54:26;;;;;;;11.02;7.85;;;11.00;76.80;;;;;;5031563;28;20029;-49
2021/10/05 03:56:52;;;;;;;11.68;8.55;;;11.00;77.30;;;;;;5026535;28;20034;-50
2021/10/05 03:59:19;;;;;;;10.48;8.10;;;11.00;76.60;;;;;;5030474;28;20076;-49
2021/10/05 04:01:46;;;;;;;10.65;7.63;;;11.00;76.50;;;;;;5032412;28;20041;-50
2021/10/05 04:04:12;;;;;;;11.05;8.25;;;11.10;76.50;;;;;;5031574;28;20026;-50
2021/10/05 04:06:37;;;;;;;10.85;8.13;;;11.10;76.50;;;;;;5033015;28;20389;-50
2021/10/05 04:09:06;;;;;;;10.18;7.88;;;11.00;76.50;;;;;;5032769;28;20037;-50
2021/10/05 04:11:35;;;;;;;9.77;7.32;;;11.00;76.50;;;;;;5021951;28;20044;-51
2021/10/05 04:14:01;;;;;;;10.85;8.27;;;11.00;76.60;;;;;;5031868;28;20033;-50
2021/10/05 04:16:27;;;;;;;12.13;8.02;;;11.10;76.70;;;;;;5032168;28;20061;-50
2021/10/05 04:18:52;;;;;;;11.02;7.53;;;11.10;76.60;;;;;;5033366;28;20053;-50
2021/10/05 04:21:19;;;;;;;10.60;7.60;;;11.10;76.60;;;;;;5030906;28;20029;-50
2021/10/05 04:23:44;;;;;;;9.65;7.53;;;11.00;76.60;;;;;;5030297;28;20039;-50
2021/10/05 04:26:10;;;;;;;12.02;7.45;;;11.10;76.60;;;;;;5026095;28;20030;-51
2021/10/05 04:28:36;;;;;;;12.40;8.15;;;11.10;76.70;;;;;;5018679;28;20026;-49
2021/10/05 04:31:03;;;;;;;9.90;7.43;;;11.10;76.70;;;;;;5032657;28;20046;-51
2021/10/05 04:33:29;;;;;;;10.88;7.57;;;11.20;77.50;;;;;;5024713;28;20032;-52
2021/10/05 04:35:56;;;;;;;12.35;9.27;;;11.20;76.70;;;;;;5029222;28;20400;-51
2021/10/05 04:38:21;;;;;;;10.00;7.05;;;11.20;76.60;;;;;;5031445;28;20056;-50
2021/10/05 04:40:47;;;;;;;9.65;7.25;;;11.30;76.50;;;;;;5032727;28;20029;-50
2021/10/05 04:43:13;;;;;;;10.57;7.80;;;11.30;76.30;;;;;;5032567;28;20032;-50
2021/10/05 04:45:38;;;;;;;10.98;7.95;;;11.30;76.10;;;;;;5010269;28;20029;-52
2021/10/05 04:48:08;;;;;;;9.77;7.65;;;11.40;76.30;;;;;;5031422;28;20051;-50
2021/10/05 04:50:35;;;;;;;10.05;8.38;;;11.40;76.10;;;;;;5032726;28;20029;-50
2021/10/05 04:53:01;;;;;;;9.18;7.20;;;11.40;76.20;;;;;;5031675;28;20469;-50
2021/10/05 04:55:26;;;;;;;10.20;7.47;;;11.40;76.10;;;;;;5029953;28;20116;-50
2021/10/05 04:57:53;;;;;;;10.05;7.57;;;11.40;76.10;;;;;;5022792;28;20029;-52
2021/10/05 05:00:18;;;;;;;10.50;7.75;;;11.50;76.10;;;;;;5031267;28;20033;-50
2021/10/05 05:02:44;;;;;;;10.27;7.82;;;11.50;75.90;;;;;;5031592;28;20036;-52
2021/10/05 05:05:10;;;;;;;10.65;7.82;;;11.50;75.80;;;;;;5028720;28;20025;-51
2021/10/05 05:07:36;;;;;;;9.13;7.55;;;11.60;75.70;;;;;;5030388;28;20060;-50
2021/10/05 05:10:03;;;;;;;10.57;8.20;;;11.60;75.70;;;;;;5031108;28;20057;-51
2021/10/05 05:12:29;;;;;;;10.35;7.82;;;11.60;75.50;;;;;;5029949;28;20036;-53
2021/10/05 05:14:56;;;;;;;11.23;8.35;;;11.60;75.40;;;;;;5030048;28;20116;-51
2021/10/05 05:17:22;;;;;;;8.68;7.28;;;11.50;75.30;;;;;;5028149;28;20456;-49
2021/10/05 05:19:48;;;;;;;10.43;8.00;;;11.50;75.40;;;;;;5026252;28;20049;-49
2021/10/05 05:22:14;;;;;;;11.93;8.32;;;11.50;75.40;;;;;;5026706;28;20615;-49
2021/10/05 05:24:39;;;;;;;12.45;8.93;;;11.50;75.70;;;;;;5028808;28;20022;-49
2021/10/05 05:27:05;;;;;;;11.70;8.73;;;11.60;76.50;;;;;;5043700;28;20032;-52
2021/10/05 05:29:31;;;;;;;12.60;9.27;;;11.60;75.90;;;;;;5029965;28;20101;-49
2021/10/05 05:31:57;;;;;;;16.48;9.27;;;11.60;75.70;;;;;;5025769;28;20108;-52
2021/10/05 05:34:24;;;;;;;12.75;9.25;;;11.70;76.00;;;;;;5025996;28;20481;-52
2021/10/05 05:36:50;;;;;;;12.27;8.82;;;11.70;75.70;;;;;;5019639;28;20071;-49
2021/10/05 05:39:16;;;;;;;13.70;9.82;;;11.60;75.80;;;;;;5023713;28;20053;-49
2021/10/05 05:41:45;;;;;;;15.48;9.73;;;11.60;75.70;;;;;;5021132;28;20493;-50
2021/10/05 05:44:14;;;;;;;11.40;8.60;;;11.60;75.90;;;;;;5015398;28;20018;-49
2021/10/05 05:46:41;;;;;;;14.95;9.68;;;11.60;75.80;;;;;;5019413;28;20060;-51
2021/10/05 05:49:07;;;;;;;12.10;8.70;;;11.60;75.90;;;;;;5018399;28;20441;-52
2021/10/05 05:51:33;;;;;;;14.50;9.35;;;11.60;76.10;;;;;;5022461;28;20065;-50
2021/10/05 05:53:59;;;;;;;13.48;8.40;;;11.60;76.10;;;;;;5016505;28;20127;-50
2021/10/05 05:56:25;;;;;;;12.88;8.68;;;11.50;76.20;;;;;;5021170;28;21741;-49
2021/10/05 05:58:54;;;;;;;12.38;9.02;;;11.50;76.40;;;;;;5020636;28;20034;-50
2021/10/05 06:01:23;;;;;;;12.95;9.93;;;11.50;76.60;;;;;;5020912;28;20033;-49
2021/10/05 06:03:49;;;;;;;13.00;9.60;;;11.50;76.60;;;;;;5024408;28;20049;-52
2021/10/05 06:06:17;;;;;;;11.23;8.65;;;11.50;76.60;;;;;;5029095;28;20121;-50
2021/10/05 06:08:43;;;;;;;13.80;8.82;;;11.60;76.80;;;;;;5025317;28;20031;-49
2021/10/05 06:11:09;;;;;;;13.02;8.63;;;11.60;76.80;;;;;;5023426;28;20033;-49
2021/10/05 06:13:34;;;;;;;13.45;10.00;;;11.70;76.90;;;;;;5025108;28;20105;-49
2021/10/05 06:16:00;;;;;;;12.10;8.55;;;11.70;76.90;;;;;;5027826;28;20477;-50
2021/10/05 06:18:26;;;;;;;13.20;8.88;;;11.80;76.90;;;;;;5026550;28;20041;-52
2021/10/05 06:20:51;;;;;;;13.07;9.18;;;11.90;76.90;;;;;;5023165;28;20413;-50
2021/10/05 06:23:17;;;;;;;12.65;8.80;;;11.90;76.70;;;;;;5020892;28;20105;-50
2021/10/05 06:25:43;;;;;;;12.30;8.07;;;12.00;76.70;;;;;;5023189;28;20037;-50
2021/10/05 06:28:09;;;;;;;13.50;8.77;;;12.10;76.60;;;;;;5025190;28;20511;-50
2021/10/05 06:30:35;;;;;;;13.82;8.95;;;12.10;76.40;;;;;;5021319;28;20033;-50
2021/10/05 06:33:02;;;;;;;16.58;9.07;;;12.20;76.40;;;;;;5025896;28;20112;-49
2021/10/05 06:35:30;;;;;;;11.07;7.88;;;12.20;76.30;;;;;;5021853;28;20033;-50
2021/10/05 06:37:57;;;;;;;12.68;8.45;;;12.30;76.20;;;;;;5021897;28;20107;-49
2021/10/05 06:40:25;;;;;;;13.02;9.13;;;12.30;76.20;;;;;;5022547;28;20137;-49
2021/10/05 06:42:51;;;;;;;12.13;8.70;;;12.40;76.20;;;;;;5024856;28;20037;-50
2021/10/05 06:45:17;;;;;;;12.18;8.65;;;12.40;76.00;;;;;;5023070;28;20051;-52
2021/10/05 06:47:43;;;;;;;12.52;9.55;;;12.40;76.10;;;;;;5022201;28;20025;-49
2021/10/05 06:50:09;;;;;;;12.25;8.30;;;12.50;75.80;;;;;;5029813;28;20032;-50
2021/10/05 06:52:35;;;;;;;11.25;7.93;;;12.50;75.90;;;;;;5021661;28;20461;-50
2021/10/05 06:55:01;;;;;;;14.50;9.20;;;12.50;75.80;;;;;;5022793;28;20071;-51
2021/10/05 06:57:26;;;;;;;10.40;7.50;;;12.50;75.70;;;;;;5001124;28;20021;-50
2021/10/05 06:59:52;;;;;;;11.82;9.25;;;12.50;75.60;;;;;;5020976;28;20029;-51
2021/10/05 07:02:18;;;;;;;11.65;8.25;;;12.50;75.60;;;;;;5020402;28;20022;-50
2021/10/05 07:04:43;;;;;;;15.05;8.57;;;12.50;75.80;;;;;;5010789;28;20080;-51
2021/10/05 07:07:09;;;;;;;12.10;8.35;;;12.50;76.00;;;;;;5006493;28;20057;-51
2021/10/05 07:09:35;;;;;;;10.45;7.82;;;12.50;76.10;;;;;;5021095;28;20034;-52
2021/10/05 07:12:00;;;;;;;12.80;8.75;;;12.60;76.30;;;;;;5020132;28;20146;-52
2021/10/05 07:14:26;;;;;;;13.65;8.38;;;12.70;76.20;;;;;;5006487;28;20118;-50
2021/10/05 07:16:52;;;;;;;11.77;8.45;;;12.80;76.30;;;;;;5012184;28;20029;-50
2021/10/05 07:19:18;;;;;;;12.02;8.32;;;12.80;76.00;;;;;;5014467;28;20036;-50
2021/10/05 07:21:44;;;;;;;12.50;8.57;;;12.90;75.70;;;;;;5011289;28;20029;-50
2021/10/05 07:24:09;;;;;;;10.23;8.05;;;13.00;75.70;;;;;;5014670;28;20544;-52
2021/10/05 07:26:35;;;;;;;14.30;8.93;;;13.10;75.60;;;;;;5010132;28;20112;-52
2021/10/05 07:29:01;;;;;;;12.27;8.43;;;13.20;75.50;;;;;;5005919;28;20029;-50
2021/10/05 07:31:29;;;;;;;11.82;8.65;;;13.20;75.20;;;;;;5008706;28;20030;-51
2021/10/05 07:33:55;;;;;;;12.35;8.20;;;13.20;75.20;;;;;;5010101;28;20029;-51
2021/10/05 07:36:21;;;;;;;11.73;8.57;;;13.30;74.90;;;;;;5014409;28;20026;-52
2021/10/05 07:38:46;;;;;;;10.98;7.75;;;13.30;74.70;;;;;;5008961;28;20053;-51
2021/10/05 07:41:12;;;;;;;10.52;7.85;;;13.40;74.80;;;;;;5008400;28;20397;-50
2021/10/05 07:43:38;;;;;;;11.25;8.50;;;13.40;74.80;;;;;;5012916;28;20393;-50
2021/10/05 07:46:04;;;;;;;14.15;8.98;;;13.40;74.80;;;;;;5010263;28;20030;-52
2021/10/05 07:48:29;;;;;;;12.38;7.97;;;13.50;74.60;;;;;;5003004;28;20030;-49
2021/10/05 07:50:55;;;;;;;10.82;8.02;;;13.50;74.40;;;;;;5012444;28;20386;-51
2021/10/05 07:53:21;;;;;;;13.38;8.77;;;13.50;74.50;;;;;;5009450;28;20037;-51
2021/10/05 07:55:47;;;;;;;11.50;7.88;;;13.50;74.50;;;;;;5007682;28;20084;-50
2021/10/05 07:58:13;;;;;;;12.70;8.10;;;13.60;74.50;;;;;;5013231;28;20473;-51
2021/10/05 08:00:38;;;;;;;12.25;8.32;;;13.60;74.40;;;;;;5013082;28;20075;-53
2021/10/05 08:03:04;;;;;;;10.93;8.20;;;13.60;74.30;;;;;;5011732;28;20038;-52
2021/10/05 08:05:30;;;;;;;10.38;7.95;;;13.60;74.20;;;;;;5009703;28;20041;-52
2021/10/05 08:07:59;;;;;;;14.23;8.38;;;13.70;74.10;;;;;;5007283;28;20025;-51
2021/10/05 08:10:24;;;;;;;11.65;8.63;;;13.70;74.10;;;;;;5012816;28;20029;-52
2021/10/05 08:12:51;;;;;;;10.07;7.20;;;13.70;73.80;;;;;;5009251;28;20449;-51
2021/10/05 08:15:16;;;;;;;11.02;8.77;;;13.70;73.60;;;;;;5010330;28;20037;-51
2021/10/05 08:17:42;;;;;;;13.63;9.00;;;13.70;73.50;;;;;;5012714;28;20056;-52
2021/10/05 08:20:10;;;;;;;12.15;8.70;;;13.70;73.30;;;;;;5010476;28;20256;-53
2021/10/05 08:22:36;;;;;;;11.75;8.45;;;13.60;73.30;;;;;;5008877;28;20106;-50
2021/10/05 08:25:02;;;;;;;9.93;7.82;;;13.60;73.50;;;;;;4991432;28;20567;-52
2021/10/05 08:27:29;;;;;;;11.73;8.07;;;13.60;73.50;;;;;;4996409;28;20034;-50
2021/10/05 08:29:55;;;;;;;11.38;8.15;;;13.60;73.70;;;;;;5009502;28;20033;-49
2021/10/05 08:32:20;;;;;;;13.68;9.00;;;13.60;73.70;;;;;;5012229;28;20038;-51
2021/10/05 08:34:46;;;;;;;13.57;9.07;;;13.60;73.60;;;;;;5005502;28;20048;-51
2021/10/05 08:37:12;;;;;;;12.77;9.30;;;13.60;73.50;;;;;;5005784;28;20083;-52
2021/10/05 08:39:37;;;;;;;9.52;7.15;;;13.60;73.60;;;;;;5008573;28;20064;-51
2021/10/05 08:42:04;;;;;;;10.68;8.30;;;13.60;73.60;;;;;;5010141;28;20034;-50
2021/10/05 08:44:29;;;;;;;13.15;8.80;;;13.70;73.50;;;;;;5008421;28;20496;-51
2021/10/05 08:46:55;;;;;;;10.82;8.48;;;13.70;73.40;;;;;;5013153;28;20030;-51
2021/10/05 08:49:22;;;;;;;12.68;8.18;;;13.70;73.30;;;;;;5007396;28;20045;-51
2021/10/05 08:51:49;;;;;;;11.77;8.80;;;13.70;73.20;;;;;;5011136;28;20095;-53
2021/10/05 08:54:15;;;;;;;12.55;9.35;;;13.70;73.10;;;;;;5011065;28;20061;-51
2021/10/05 08:56:42;;;;;;;12.30;9.32;;;13.70;72.90;;;;;;5008508;28;20116;-50
2021/10/05 08:59:08;;;;;;;12.35;8.90;;;13.70;72.90;;;;;;5006451;28;20033;-49
2021/10/05 09:01:34;;;;;;;12.68;9.02;;;13.60;73.00;;;;;;5003302;28;20060;-52
2021/10/05 09:04:01;;;;;;;12.05;8.85;;;13.60;72.80;;;;;;5003986;28;20041;-52
2021/10/05 09:06:27;;;;;;;12.32;8.70;;;13.60;72.50;;;;;;5006627;28;20041;-52
2021/10/05 09:08:54;;;;;;;11.77;8.52;;;13.60;72.50;;;;;;5008221;28;20151;-53
2021/10/05 09:11:26;;;;;;;12.38;8.18;;;13.50;72.40;;;;;;5007275;28;20029;-52
2021/10/05 09:13:56;;;;;;;12.60;8.65;;;13.60;72.80;;;;;;5005385;28;20065;-52
2021/10/05 09:16:23;;;;;;;13.57;8.82;;;13.60;72.90;;;;;;5001498;28;20557;-52
2021/10/05 09:18:51;;;;;;;12.88;8.93;;;13.60;73.00;;;;;;5012173;28;20029;-51
2021/10/05 09:21:17;;;;;;;11.43;7.43;;;13.60;73.60;;;;;;5008839;28;20037;-53
2021/10/05 09:24:15;;;;;;;10.30;7.80;;;13.70;73.00;;;;;;5005908;28;20049;-49
2021/10/05 09:26:43;;;;;;;11.15;7.60;;;13.70;73.10;;;;;;4972977;28;20033;-50
2021/10/05 09:29:09;;;;;;;9.05;6.93;;;13.70;73.20;;;;;;5010040;28;20135;-51
2021/10/05 09:32:15;;;;;;;10.30;7.47;;;13.70;73.00;;;;;;5011979;28;20067;-49
2021/10/05 09:34:49;;;;;;;10.43;8.13;;;13.80;72.90;;;;;;4931958;28;20094;-52
2021/10/05 09:37:22;;;;;;;11.68;8.73;;;13.80;72.80;;;;;;4936147;28;20031;-52
2021/10/05 09:39:57;;;;;;;13.20;9.00;;;13.80;72.50;;;;;;4976729;28;20726;-51
2021/10/05 09:42:43;;;;;;;11.40;9.07;;;13.80;72.20;;;;;;5008072;28;20116;-51
2021/10/05 09:45:29;;;;;;;13.93;9.48;;;13.80;72.30;;;;;;5004356;28;20091;-51
2021/10/05 09:47:58;;;;;;;15.25;8.38;;;13.70;72.40;;;;;;5011520;28;25150;-50
2021/10/05 09:50:34;;;;;;;13.80;9.43;;;13.70;72.70;;;;;;5008837;28;20175;-49
2021/10/05 09:53:02;;;;;;;13.25;9.32;;;13.70;72.70;;;;;;5016709;28;20084;-50
2021/10/05 09:55:33;;;;;;;14.95;8.57;;;13.70;72.90;;;;;;5003969;28;20041;-52
2021/10/05 09:57:59;;;;;;;11.30;8.63;;;13.70;73.00;;;;;;5011511;28;21575;-51
2021/10/05 10:00:31;;;;;;;11.63;7.82;;;13.70;72.90;;;;;;5013483;28;20095;-49
2021/10/05 10:02:56;;;;;;;10.25;7.72;;;13.70;73.10;;;;;;5003547;28;20025;-52
2021/10/05 10:05:25;;;;;;;10.73;8.20;;;13.70;73.20;;;;;;5015319;28;20099;-50
2021/10/05 10:07:56;;;;;;;12.40;7.57;;;13.80;73.10;;;;;;5011679;28;20033;-52
2021/10/05 10:10:36;;;;;;;10.20;7.40;;;13.90;73.10;;;;;;5016633;28;20079;-51
2021/10/05 10:13:08;;;;;;;11.77;8.35;;;13.90;73.20;;;;;;5018860;28;20141;-50
2021/10/05 10:15:36;;;;;;;11.38;8.75;;;14.00;73.30;;;;;;5019237;28;20684;-52
2021/10/05 10:18:16;;;;;;;12.68;9.25;;;14.00;73.30;;;;;;5019849;28;20576;-52
2021/10/05 10:20:53;;;;;;;11.70;8.00;;;14.00;73.00;;;;;;5016413;28;20113;-50
2021/10/05 10:23:23;;;;;;;13.88;8.75;;;14.00;73.00;;;;;;5025052;28;20106;-51
2021/10/05 10:25:56;;;;;;;10.95;7.25;;;14.00;72.90;;;;;;5020778;28;20088;-51
2021/10/05 10:28:29;;;;;;;12.27;8.38;;;14.00;72.80;;;;;;5022024;28;20029;-52
2021/10/05 10:30:58;;;;;;;11.82;8.45;;;14.00;72.70;;;;;;5012990;28;20033;-53
2021/10/05 10:33:25;;;;;;;12.55;8.05;;;14.00;72.70;;;;;;5018432;28;20033;-51
2021/10/05 10:35:53;;;;;;;13.77;8.55;;;14.00;72.60;;;;;;5022322;28;20156;-50
2021/10/05 10:38:23;;;;;;;12.52;8.50;;;14.00;72.60;;;;;;5014425;28;20014;-52
2021/10/05 10:40:49;;;;;;;11.82;8.70;;;14.00;72.50;;;;;;5017859;28;20108;-53
2021/10/05 10:43:18;;;;;;;10.25;8.13;;;14.00;72.60;;;;;;5018874;28;20037;-53
2021/10/05 10:45:58;;;;;;;12.80;8.15;;;13.90;72.60;;;;;;5025956;28;20682;-53
2021/10/05 10:48:35;;;;;;;11.85;8.15;;;14.00;72.70;;;;;;5026780;28;20105;-54
2021/10/05 10:51:15;;;;;;;12.35;8.52;;;14.00;72.40;;;;;;5016590;28;20674;-51
2021/10/05 10:53:44;;;;;;;11.20;7.07;;;13.90;72.80;;;;;;5014890;28;20025;-52
2021/10/05 10:56:13;;;;;;;9.00;7.13;;;13.90;72.10;;;;;;5016611;28;20040;-52
2021/10/05 10:58:45;;;;;;;10.93;8.18;;;13.90;72.90;;;;;;5013925;28;20032;-51
2021/10/05 11:01:14;;;;;;;;;;;13.90;72.40;;;;;;5003680;28;20033;-51
2021/10/05 11:03:41;;;;;;;9.45;7.40;;;13.90;72.30;;;;;;5010493;28;19956;-51
2021/10/05 11:06:17;;;;;;;11.95;8.27;;;14.00;72.20;;;;;;5016811;28;20017;-52
2021/10/05 11:09:00;;;;;;;9.25;7.03;;;14.00;71.70;;;;;;5011317;28;20068;-52
2021/10/05 11:11:30;;;;;;;8.07;5.97;;;14.00;71.40;;;;;;5011070;28;20028;-54
2021/10/05 11:14:01;;;;;;;10.23;7.50;;;14.00;71.50;;;;;;5005395;28;20052;-53
2021/10/05 11:16:27;;;;;;;9.80;7.57;;;14.10;71.60;;;;;;5012248;28;20452;-52
2021/10/05 11:19:13;;;;;;;11.82;7.38;;;14.10;71.60;;;;;;5014282;28;20037;-51
2021/10/05 11:21:41;;;;;;;10.57;6.95;;;14.10;71.60;;;;;;5015840;28;20037;-51
2021/10/05 11:24:08;;;;;;;14.63;7.53;;;14.10;71.50;;;;;;5011309;28;20051;-54
2021/10/05 11:26:41;;;;;;;10.90;7.30;;;14.10;71.60;;;;;;5007458;28;20057;-53
2021/10/05 11:29:07;;;;;;;9.68;6.70;;;14.10;71.60;;;;;;5011215;28;20052;-50
2021/10/05 11:31:50;;;;;;;10.00;6.75;;;14.10;71.70;;;;;;5012267;28;20477;-51
2021/10/05 11:34:18;;;;;;;9.63;6.35;;;14.20;71.50;;;;;;5014189;28;20469;-52
2021/10/05 11:36:45;;;;;;;9.73;6.78;;;14.20;72.00;;;;;;5007611;28;20057;-52
2021/10/05 11:39:19;;;;;;;12.13;7.63;;;14.20;71.30;;;;;;5004279;28;20115;-52
2021/10/05 11:41:45;;;;;;;9.93;6.75;;;14.30;71.20;;;;;;5010050;28;20397;-54
2021/10/05 11:44:21;;;;;;;8.88;6.82;;;14.30;71.20;;;;;;5011104;28;20049;-54
2021/10/05 11:47:01;;;;;;;9.65;6.72;;;14.30;71.20;;;;;;5010368;28;20025;-52
2021/10/05 11:49:30;;;;;;;10.23;6.97;;;14.30;71.30;;;;;;5005810;28;20415;-51
2021/10/05 11:51:56;;;;;;;8.07;6.03;;;14.40;70.70;;;;;;5009965;28;20485;-51
2021/10/05 11:54:28;;;;;;;8.02;5.93;;;14.40;70.70;;;;;;5004553;28;20246;-51
2021/10/05 11:56:55;;;;;;;9.57;5.70;;;14.40;70.50;;;;;;5012474;28;20025;-52
2021/10/05 11:59:24;;;;;;;9.02;6.13;;;14.40;70.70;;;;;;5010295;28;20531;-51
2021/10/05 12:01:56;;;;;;;8.38;5.75;;;14.50;70.80;;;;;;5011735;28;20543;-51
2021/10/05 12:04:23;;;;;;;8.35;5.47;;;14.50;70.70;;;;;;5004838;28;20029;-53
2021/10/05 12:06:54;;;;;;;5.65;4.78;;;14.60;70.80;;;;;;5012510;28;20076;-51
2021/10/05 12:09:26;;;;;;;8.38;6.25;;;14.60;70.70;;;;;;5015645;28;20110;-51
2021/10/05 12:11:57;;;;;;;8.82;6.45;;;14.60;70.70;;;;;;5009225;28;20784;-52
2021/10/05 12:14:28;;;;;;;8.05;5.88;;;14.70;71.40;;;;;;5003704;28;20063;-51
2021/10/05 12:17:00;;;;;;;9.05;5.53;;;14.80;70.80;;;;;;5012891;28;20452;-51
2021/10/05 12:19:26;;;;;;;;;;;14.80;70.60;;;;;;5014343;28;20044;-51
2021/10/05 12:21:57;;;;;;;6.82;4.43;;;14.80;69.90;;;;;;5012716;28;19969;-50
2021/10/05 12:24:34;;;;;;;6.97;5.63;;;14.90;69.80;;;;;;5005274;28;20030;-51
2021/10/05 12:27:00;;;;;;;8.40;5.13;;;14.90;69.30;;;;;;5008311;28;20037;-51
2021/10/05 12:29:27;;;;;;;7.65;5.78;;;14.90;68.80;;;;;;5008894;28;20045;-51
2021/10/05 12:31:55;;;;;;;8.45;5.88;;;14.80;67.90;;;;;;5010723;28;20447;-52
2021/10/05 12:34:24;;;;;;;9.75;5.13;;;14.90;67.10;;;;;;5007691;28;20060;-51
2021/10/05 12:36:50;;;;;;;7.90;5.22;;;14.90;67.10;;;;;;5003662;28;20026;-53
2021/10/05 12:39:18;;;;;;;6.72;5.10;;;14.90;66.80;;;;;;5003019;28;20507;-54
2021/10/05 12:41:58;;;;;;;6.10;4.75;;;14.90;66.40;;;;;;4997474;28;20511;-51